Time;durP1;ratioP1;P1;durP2;ratioP2;P2;SDS_P1;SDS_P2;PMS_P1;PMS_P2;Temp;Humidity;BMP_temperature;BMP_pressure;BME280_temperature;BME280_humidity;BME280_pressure;Samples;Min_cycle;Max_cycle;Signal;HPM_P1;HPM_P2
2023/05/12 00:01:34;;;;;;;;;;;;;;;;;;5037585;28;20019;-81
2023/05/12 00:03:59;;;;;;;;;;;;;;;;;;5036069;28;19913;-81
2023/05/12 00:06:25;;;;;;;;;;;;;;;;;;5037121;28;19920;-81
2023/05/12 00:08:50;;;;;;;;;;;;;;;;;;5035988;28;20292;-81
2023/05/12 00:11:15;;;;;;;;;;;;;;;;;;5046673;28;19948;-81
2023/05/12 00:13:40;;;;;;;;;;;;;;;;;;5043643;28;19979;-81
2023/05/12 00:16:06;;;;;;;;;;;;;;;;;;5035934;28;19912;-81
2023/05/12 00:18:31;;;;;;;;;;;;;;;;;;5036462;28;19909;-81
2023/05/12 00:20:57;;;;;;;;;;;;;;;;;;5036552;28;20674;-81
2023/05/12 00:23:22;;;;;;;;;;;;;;;;;;5035250;28;19913;-81
2023/05/12 00:25:47;;;;;;;;;;;;;;;;;;5036725;28;20050;-81
2023/05/12 00:28:13;;;;;;;;;;;;;;;;;;5041926;28;19916;-81
2023/05/12 00:30:38;;;;;;;;;;;;;;;;;;5034240;28;19917;-81
2023/05/12 00:33:03;;;;;;;;;;;;;;;;;;5036427;28;19928;-81
2023/05/12 00:35:29;;;;;;;;;;;;;;;;;;4989280;28;1339410;-81
2023/05/12 00:37:54;;;;;;;;;;;;;;;;;;5036918;28;19920;-81
2023/05/12 00:40:19;;;;;;;;;;;;;;;;;;5034447;28;20342;-81
2023/05/12 00:42:45;;;;;;;;;;;;;;;;;;5026803;28;19909;-81
2023/05/12 00:45:10;;;;;;;;;;;;;;;;;;5040194;28;20394;-81
2023/05/12 00:47:36;;;;;;;;;;;;;;;;;;5035751;28;19909;-81
2023/05/12 00:50:01;;;;;;;;;;;;;;;;;;5034987;28;19952;-81
2023/05/12 00:52:26;;;;;;;;;;;;;;;;;;5035123;28;19909;-81
2023/05/12 00:54:52;;;;;;;;;;;;;;;;;;5033706;28;21238;-81
2023/05/12 00:57:17;;;;;;;;;;;;;;;;;;5035450;28;19932;-81
2023/05/12 00:59:42;;;;;;;;;;;;;;;;;;5029718;28;19968;-81
2023/05/12 01:02:08;;;;;;;;;;;;;;;;;;5033468;28;19955;-81
2023/05/12 01:04:33;;;;;;;;;;;;;;;;;;5029793;28;20348;-81
2023/05/12 01:06:59;;;;;;;;;;;;;;;;;;5034923;28;20331;-81
2023/05/12 01:09:24;;;;;;;;;;;;;;;;;;5036050;28;20015;-81
2023/05/12 01:11:50;;;;;;;;;;;;;;;;;;5036768;28;19909;-81
2023/05/12 01:14:16;;;;;;;;;;;;;;;;;;5040922;28;19936;-81
2023/05/12 01:16:42;;;;;;;;;;;;;;;;;;5033833;28;19908;-81
2023/05/12 01:19:09;;;;;;;;;;;;;;;;;;5047741;28;19913;-81
2023/05/12 01:21:34;;;;;;;;;;;;;;;;;;5034573;28;20295;-81
2023/05/12 01:24:00;;;;;;;;;;;;;;;;;;5037506;28;19917;-81
2023/05/12 01:26:28;;;;;;;;;;;;;;;;;;5037092;28;19909;-81
2023/05/12 01:28:55;;;;;;;;;;;;;;;;;;5038089;28;20327;-81
2023/05/12 01:31:20;;;;;;;;;;;;;;;;;;5038285;28;19917;-81
2023/05/12 01:33:46;;;;;;;;;;;;;;;;;;5029524;28;19897;-81
2023/05/12 01:36:11;;;;;;;;;;;;;;;;;;5037272;28;20723;-81
2023/05/12 01:38:36;;;;;;;;;;;;;;;;;;5034015;28;19912;-81
2023/05/12 01:41:02;;;;;;;;;;;;;;;;;;5033495;28;20003;-81
2023/05/12 01:43:28;;;;;;;;;;;;;;;;;;5033123;28;20391;-82
2023/05/12 01:45:53;;;;;;;;;;;;;;;;;;5033065;28;19909;-81
2023/05/12 01:48:19;;;;;;;;;;;;;;;;;;5033828;28;20380;-80
2023/05/12 01:50:44;;;;;;;;;;;;;;;;;;5032921;28;19916;-81
2023/05/12 01:53:14;;;;;;;;;;;;;;;;;;5033983;28;19920;-81
2023/05/12 01:55:39;;;;;;;;;;;;;;;;;;5016840;28;20339;-81
2023/05/12 01:58:05;;;;;;;;;;;;;;;;;;5034452;28;19913;-81
2023/05/12 02:00:30;;;;;;;;;;;;;;;;;;5032486;28;19920;-81
2023/05/12 02:02:58;;;;;;;;;;;;;;;;;;5049671;28;19917;-81
2023/05/12 02:05:23;;;;;;;;;;;;;;;;;;5039024;28;19909;-81
2023/05/12 02:07:49;;;;;;;;;;;;;;;;;;5060894;28;20387;-82
2023/05/12 02:10:14;;;;;;;;;;;;;;;;;;5038306;28;19916;-81
2023/05/12 02:12:40;;;;;;;;;;;;;;;;;;5040612;28;19913;-82
2023/05/12 02:15:05;;;;;;;;;;;;;;;;;;5038702;28;19909;-82
2023/05/12 02:17:31;;;;;;;;;;;;;;;;;;5035370;28;19941;-82
2023/05/12 02:19:59;;;;;;;;;;;;;;;;;;5024025;28;19909;-81
2023/05/12 02:22:25;;;;;;;;;;;;;;;;;;5045723;28;19935;-81
2023/05/12 02:24:50;;;;;;;;;;;;;;;;;;5066569;28;20394;-81
2023/05/12 02:27:16;;;;;;;;;;;;;;;;;;5045989;28;20341;-81
2023/05/12 02:29:41;;;;;;;;;;;;;;;;;;5041720;28;20371;-81
2023/05/12 02:32:07;;;;;;;;;;;;;;;;;;5047353;28;19951;-81
2023/05/12 02:34:32;;;;;;;;;;;;;;;;;;5023612;28;19929;-81
2023/05/12 02:36:58;;;;;;;;;;;;;;;;;;5032456;28;19917;-81
2023/05/12 02:39:24;;;;;;;;;;;;;;;;;;5032652;28;19909;-81
2023/05/12 02:41:49;;;;;;;;;;;;;;;;;;5034329;28;19913;-81
2023/05/12 02:44:16;;;;;;;;;;;;;;;;;;5033506;28;19963;-81
2023/05/12 02:46:41;;;;;;;;;;;;;;;;;;5033076;28;19924;-81
2023/05/12 02:49:06;;;;;;;;;;;;;;;;;;5033673;28;19909;-81
2023/05/12 02:51:32;;;;;;;;;;;;;;;;;;5034182;28;19900;-81
2023/05/12 02:53:57;;;;;;;;;;;;;;;;;;5031662;28;19909;-81
2023/05/12 02:56:22;;;;;;;;;;;;;;;;;;5032278;28;19912;-82
2023/05/12 02:58:47;;;;;;;;;;;;;;;;;;5032322;28;20399;-80
2023/05/12 03:01:13;;;;;;;;;;;;;;;;;;5034046;28;19913;-80
2023/05/12 03:03:40;;;;;;;;;;;;;;;;;;5032815;28;19935;-80
2023/05/12 03:06:05;;;;;;;;;;;;;;;;;;5032400;28;20435;-80
2023/05/12 03:08:30;;;;;;;;;;;;;;;;;;5028575;28;19952;-80
2023/05/12 03:10:56;;;;;;;;;;;;;;;;;;5036826;28;19912;-80
2023/05/12 03:13:21;;;;;;;;;;;;;;;;;;5031753;28;19909;-80
2023/05/12 03:15:46;;;;;;;;;;;;;;;;;;5041186;28;19920;-81
2023/05/12 03:18:12;;;;;;;;;;;;;;;;;;5031764;28;19908;-80
2023/05/12 03:20:37;;;;;;;;;;;;;;;;;;5044027;28;19913;-80
2023/05/12 03:23:03;;;;;;;;;;;;;;;;;;5037373;28;19920;-81
2023/05/12 03:25:29;;;;;;;;;;;;;;;;;;5060298;28;19916;-81
2023/05/12 03:27:54;;;;;;;;;;;;;;;;;;5045209;28;19916;-81
2023/05/12 03:30:19;;;;;;;;;;;;;;;;;;5048184;28;19916;-81
2023/05/12 03:32:45;;;;;;;;;;;;;;;;;;5062649;28;19909;-81
2023/05/12 03:35:10;;;;;;;;;;;;;;;;;;5040405;28;20430;-81
2023/05/12 03:37:36;;;;;;;;;;;;;;;;;;5035120;28;20426;-81
2023/05/12 03:40:01;;;;;;;;;;;;;;;;;;5053066;28;19912;-82
2023/05/12 03:42:27;;;;;;;;;;;;;;;;;;5049729;28;19909;-82
2023/05/12 03:44:52;;;;;;;;;;;;;;;;;;5048329;28;20303;-82
2023/05/12 03:47:18;;;;;;;;;;;;;;;;;;5019159;28;19908;-81
2023/05/12 03:49:43;;;;;;;;;;;;;;;;;;5047473;28;19913;-82
2023/05/12 03:52:09;;;;;;;;;;;;;;;;;;5041993;28;19959;-81
2023/05/12 03:54:34;;;;;;;;;;;;;;;;;;5046990;28;20261;-81
2023/05/12 03:57:00;;;;;;;;;;;;;;;;;;5044319;28;20364;-81
2023/05/12 03:59:25;;;;;;;;;;;;;;;;;;5048273;28;19912;-81
2023/05/12 04:01:51;;;;;;;;;;;;;;;;;;5044113;28;19920;-81
2023/05/12 04:04:17;;;;;;;;;;;;;;;;;;5063913;28;20268;-82
2023/05/12 04:06:43;;;;;;;;;;;;;;;;;;5044973;28;19904;-81
2023/05/12 04:09:08;;;;;;;;;;;;;;;;;;5035832;28;19913;-81
2023/05/12 04:11:35;;;;;;;;;;;;;;;;;;5018129;28;19915;-81
2023/05/12 04:14:01;;;;;;;;;;;;;;;;;;5017834;28;19921;-82
2023/05/12 04:16:26;;;;;;;;;;;;;;;;;;5035082;28;19915;-81
2023/05/12 04:18:52;;;;;;;;;;;;;;;;;;5035081;28;19913;-80
2023/05/12 04:21:17;;;;;;;;;;;;;;;;;;5037549;28;20358;-78
2023/05/12 04:23:42;;;;;;;;;;;;;;;;;;5034597;28;19967;-78
2023/05/12 04:26:08;;;;;;;;;;;;;;;;;;5039755;28;19948;-81
2023/05/12 04:28:35;;;;;;;;;;;;;;;;;;5043093;28;20019;-83
2023/05/12 04:31:01;;;;;;;;;;;;;;;;;;5050565;28;19919;-82
2023/05/12 04:33:26;;;;;;;;;;;;;;;;;;5033590;28;19913;-82
2023/05/12 04:35:52;;;;;;;;;;;;;;;;;;5034748;28;20332;-82
2023/05/12 04:38:17;;;;;;;;;;;;;;;;;;5033933;28;19913;-84
2023/05/12 04:40:42;;;;;;;;;;;;;;;;;;5040681;28;19909;-82
2023/05/12 04:43:08;;;;;;;;;;;;;;;;;;5034573;28;19920;-83
2023/05/12 04:45:33;;;;;;;;;;;;;;;;;;5037555;28;20032;-80
2023/05/12 04:47:58;;;;;;;;;;;;;;;;;;5037483;28;19912;-83
2023/05/12 04:50:24;;;;;;;;;;;;;;;;;;5021546;28;19959;-85
2023/05/12 04:52:49;;;;;;;;;;;;;;;;;;5035389;28;19913;-83
2023/05/12 04:55:14;;;;;;;;;;;;;;;;;;5040420;28;19963;-84
2023/05/12 04:57:40;;;;;;;;;;;;;;;;;;5019472;28;19924;-84
2023/05/12 05:00:06;;;;;;;;;;;;;;;;;;5041068;28;19909;-88
2023/05/12 05:02:32;;;;;;;;;;;;;;;;;;5039590;28;20269;-89
2023/05/12 05:04:57;;;;;;;;;;;;;;;;;;5039900;28;19919;-89
2023/05/12 05:07:23;;;;;;;;;;;;;;;;;;5038651;28;19940;-87
2023/05/12 05:09:48;;;;;;;;;;;;;;;;;;5035053;28;19959;-86
2023/05/12 05:12:14;;;;;;;;;;;;;;;;;;5046921;28;19913;-86
2023/05/12 05:14:39;;;;;;;;;;;;;;;;;;5033863;28;19909;-88
2023/05/12 05:17:06;;;;;;;;;;;;;;;;;;5046204;28;20331;-86
2023/05/12 05:19:33;;;;;;;;;;;;;;;;;;5035167;28;20384;-86
2023/05/12 05:21:58;;;;;;;;;;;;;;;;;;5034327;28;19920;-87
2023/05/12 05:24:24;;;;;;;;;;;;;;;;;;5053341;28;20367;-87
2023/05/12 05:26:49;;;;;;;;;;;;;;;;;;5036385;28;19958;-86
2023/05/12 05:29:16;;;;;;;;;;;;;;;;;;5036822;28;19908;-86
2023/05/12 05:31:42;;;;;;;;;;;;;;;;;;5039378;28;19913;-88
2023/05/12 05:34:08;;;;;;;;;;;;;;;;;;5037549;28;20308;-87
2023/05/12 05:36:34;;;;;;;;;;;;;;;;;;5025634;28;19913;-87
2023/05/12 05:38:59;;;;;;;;;;;;;;;;;;5042104;28;19909;-87
2023/05/12 05:41:25;;;;;;;;;;;;;;;;;;5024965;28;19913;-87
2023/05/12 05:43:50;;;;;;;;;;;;;;;;;;5026209;28;20312;-87
2023/05/12 05:46:15;;;;;;;;;;;;;;;;;;5043013;28;19920;-87
2023/05/12 05:48:41;;;;;;;;;;;;;;;;;;5026017;28;19909;-86
2023/05/12 05:51:10;;;;;;;;;;;;;;;;;;5025124;28;20269;-88
2023/05/12 05:53:36;;;;;;;;;;;;;;;;;;5042694;28;19952;-87
2023/05/12 05:56:02;;;;;;;;;;;;;;;;;;5039829;28;19913;-87
2023/05/12 05:58:28;;;;;;;;;;;;;;;;;;5039156;28;19913;-87
2023/05/12 06:00:53;;;;;;;;;;;;;;;;;;5041715;28;20379;-86
2023/05/12 06:03:19;;;;;;;;;;;;;;;;;;5043309;28;19924;-87
2023/05/12 06:05:44;;;;;;;;;;;;;;;;;;5022907;28;19909;-87
2023/05/12 06:08:12;;;;;;;;;;;;;;;;;;5045635;28;19906;-87
2023/05/12 06:10:37;;;;;;;;;;;;;;;;;;5048349;28;19901;-87
2023/05/12 06:13:02;;;;;;;;;;;;;;;;;;5033959;28;19935;-87
2023/05/12 06:15:28;;;;;;;;;;;;;;;;;;5017375;28;19959;-87
2023/05/12 06:17:54;;;;;;;;;;;;;;;;;;5056722;28;20391;-86
2023/05/12 06:20:22;;;;;;;;;;;;;;;;;;5048102;28;19909;-86
2023/05/12 06:22:47;;;;;;;;;;;;;;;;;;5034491;28;19913;-86
2023/05/12 06:25:12;;;;;;;;;;;;;;;;;;5024651;28;20390;-86
2023/05/12 06:27:38;;;;;;;;;;;;;;;;;;5038738;28;19920;-86
2023/05/12 06:30:04;;;;;;;;;;;;;;;;;;5033521;28;19913;-87
2023/05/12 06:32:29;;;;;;;;;;;;;;;;;;5035934;28;20398;-88
2023/05/12 06:34:55;;;;;;;;;;;;;;;;;;5042951;28;20391;-88
2023/05/12 06:37:21;;;;;;;;;;;;;;;;;;5043121;28;19919;-86
2023/05/12 06:39:47;;;;;;;;;;;;;;;;;;5026527;28;19947;-86
2023/05/12 06:42:12;;;;;;;;;;;;;;;;;;5045885;28;19913;-86
2023/05/12 06:44:39;;;;;;;;;;;;;;;;;;5028973;28;19912;-86
2023/05/12 06:47:05;;;;;;;;;;;;;;;;;;5047141;28;20023;-85
2023/05/12 06:49:31;;;;;;;;;;;;;;;;;;5048054;28;19924;-85
2023/05/12 06:51:56;;;;;;;;;;;;;;;;;;5052147;28;19962;-85
2023/05/12 06:54:21;;;;;;;;;;;;;;;;;;5070758;28;20364;-86
2023/05/12 06:56:47;;;;;;;;;;;;;;;;;;5043426;28;19913;-87
2023/05/12 06:59:12;;;;;;;;;;;;;;;;;;5064756;28;19913;-87
2023/05/12 07:01:38;;;;;;;;;;;;;;;;;;5042694;28;20004;-87
2023/05/12 07:04:03;;;;;;;;;;;;;;;;;;5050072;28;19924;-86
2023/05/12 07:06:30;;;;;;;;;;;;;;;;;;5029048;28;20342;-87
2023/05/12 07:08:55;;;;;;;;;;;;;;;;;;5041309;28;19908;-88
2023/05/12 07:11:21;;;;;;;;;;;;;;;;;;5036401;28;20342;-87
2023/05/12 07:13:46;;;;;;;;;;;;;;;;;;5019873;28;19915;-87
2023/05/12 07:16:11;;;;;;;;;;;;;;;;;;5061022;28;19967;-87
2023/05/12 07:18:37;;;;;;;;;;;;;;;;;;5037534;28;19944;-87
2023/05/12 07:21:02;;;;;;;;;;;;;;;;;;5036866;28;19913;-87
2023/05/12 07:23:28;;;;;;;;;;;;;;;;;;5037955;28;20015;-84
2023/05/12 07:25:53;;;;;;;;;;;;;;;;;;5036916;28;19912;-88
2023/05/12 07:28:19;;;;;;;;;;;;;;;;;;5036344;28;19912;-87
2023/05/12 07:30:45;;;;;;;;;;;;;;;;;;5070164;28;19920;-86
2023/05/12 07:33:10;;;;;;;;;;;;;;;;;;5038367;28;19974;-86
2023/05/12 07:35:35;;;;;;;;;;;;;;;;;;5037703;28;19979;-87
2023/05/12 07:38:02;;;;;;;;;;;;;;;;;;5037865;28;19919;-87
2023/05/12 07:40:27;;;;;;;;;;;;;;;;;;5058449;28;19963;-87
2023/05/12 07:42:53;;;;;;;;;;;;;;;;;;5074077;28;19912;-86
2023/05/12 07:45:21;;;;;;;;;;;;;;;;;;5037115;28;19938;-86
2023/05/12 07:47:47;;;;;;;;;;;;;;;;;;5036480;28;19957;-86
2023/05/12 07:50:12;;;;;;;;;;;;;;;;;;5070499;28;19913;-86
2023/05/12 07:52:37;;;;;;;;;;;;;;;;;;5038576;28;20003;-86
2023/05/12 07:55:03;;;;;;;;;;;;;;;;;;5038370;28;20401;-85
2023/05/12 07:57:28;;;;;;;;;;;;;;;;;;5040635;28;19893;-85
2023/05/12 07:59:53;;;;;;;;;;;;;;;;;;5038154;28;19913;-86
2023/05/12 08:02:19;;;;;;;;;;;;;;;;;;5019111;28;19915;-85
2023/05/12 08:04:44;;;;;;;;;;;;;;;;;;5036607;28;19967;-85
2023/05/12 08:07:10;;;;;;;;;;;;;;;;;;5037035;28;19935;-85
2023/05/12 08:09:35;;;;;;;;;;;;;;;;;;5035938;28;19913;-85
2023/05/12 08:12:00;;;;;;;;;;;;;;;;;;5036487;28;19913;-87
2023/05/12 08:14:26;;;;;;;;;;;;;;;;;;5056061;28;19983;-86
2023/05/12 08:16:51;;;;;;;;;;;;;;;;;;5033119;28;19958;-86
2023/05/12 08:19:16;;;;;;;;;;;;;;;;;;5044311;28;19913;-86
2023/05/12 08:21:42;;;;;;;;;;;;;;;;;;5036326;28;19916;-85
2023/05/12 08:24:07;;;;;;;;;;;;;;;;;;5044310;28;20030;-86
2023/05/12 08:26:32;;;;;;;;;;;;;;;;;;5037165;28;19916;-86
2023/05/12 08:28:58;;;;;;;;;;;;;;;;;;5037210;28;20383;-85
2023/05/12 08:31:23;;;;;;;;;;;;;;;;;;5034799;28;19909;-85
2023/05/12 08:33:49;;;;;;;;;;;;;;;;;;5036078;28;20383;-85
2023/05/12 08:36:14;;;;;;;;;;;;;;;;;;5036439;28;19971;-85
2023/05/12 08:38:40;;;;;;;;;;;;;;;;;;5068290;28;19913;-86
2023/05/12 08:41:05;;;;;;;;;;;;;;;;;;5034123;28;19916;-85
2023/05/12 08:43:31;;;;;;;;;;;;;;;;;;5035226;28;19925;-86
2023/05/12 08:45:57;;;;;;;;;;;;;;;;;;5035287;28;20008;-84
2023/05/12 08:48:22;;;;;;;;;;;;;;;;;;5068660;28;20007;-85
2023/05/12 08:50:47;;;;;;;;;;;;;;;;;;5036493;28;20013;-86
2023/05/12 08:53:13;;;;;;;;;;;;;;;;;;5035584;28;19919;-85
2023/05/12 08:55:38;;;;;;;;;;;;;;;;;;5036405;28;20002;-87
2023/05/12 08:58:03;;;;;;;;;;;;;;;;;;5036712;28;19939;-87
2023/05/12 09:00:30;;;;;;;;;;;;;;;;;;5035186;28;19913;-86
2023/05/12 09:02:55;;;;;;;;;;;;;;;;;;5036597;28;19913;-85
2023/05/12 09:05:20;;;;;;;;;;;;;;;;;;5036143;28;19964;-85
2023/05/12 09:07:45;;;;;;;;;;;;;;;;;;5033167;28;19920;-86
2023/05/12 09:10:11;;;;;;;;;;;;;;;;;;5037114;28;20326;-86
2023/05/12 09:12:37;;;;;;;;;;;;;;;;;;5075381;28;19999;-85
2023/05/12 09:15:02;;;;;;;;;;;;;;;;;;5049216;28;19908;-86
2023/05/12 09:17:27;;;;;;;;;;;;;;;;;;5031213;28;19920;-85
2023/05/12 09:19:53;;;;;;;;;;;;;;;;;;5037833;28;19915;-86
2023/05/12 09:22:19;;;;;;;;;;;;;;;;;;5035587;28;19913;-86
2023/05/12 09:24:44;;;;;;;;;;;;;;;;;;5033151;28;20067;-86
2023/05/12 09:27:10;;;;;;;;;;;;;;;;;;5066436;28;20474;-85
2023/05/12 09:29:35;;;;;;;;;;;;;;;;;;5036008;28;19909;-86
2023/05/12 09:32:01;;;;;;;;;;;;;;;;;;5005801;28;19924;-85
2023/05/12 09:34:26;;;;;;;;;;;;;;;;;;5034202;28;19920;-86
2023/05/12 09:36:52;;;;;;;;;;;;;;;;;;5010533;28;20285;-85
2023/05/12 09:39:17;;;;;;;;;;;;;;;;;;5029302;28;19974;-86
2023/05/12 09:41:42;;;;;;;;;;;;;;;;;;5034306;28;19920;-86
2023/05/12 09:44:08;;;;;;;;;;;;;;;;;;5032865;28;19926;-86
2023/05/12 09:46:33;;;;;;;;;;;;;;;;;;5034046;28;19913;-85
2023/05/12 09:48:58;;;;;;;;;;;;;;;;;;5066819;28;19909;-85
2023/05/12 09:51:24;;;;;;;;;;;;;;;;;;5033621;28;20024;-86
2023/05/12 09:53:49;;;;;;;;;;;;;;;;;;5033906;28;20423;-86
2023/05/12 09:56:14;;;;;;;;;;;;;;;;;;5033327;28;19920;-86
2023/05/12 09:58:40;;;;;;;;;;;;;;;;;;5034808;28;19939;-86
2023/05/12 10:01:06;;;;;;;;;;;;;;;;;;5034355;28;19912;-85
2023/05/12 10:03:31;;;;;;;;;;;;;;;;;;5033064;28;19972;-86
2023/05/12 10:05:57;;;;;;;;;;;;;;;;;;5035224;28;19948;-85
2023/05/12 10:08:22;;;;;;;;;;;;;;;;;;5035103;28;19918;-86
2023/05/12 10:10:49;;;;;;;;;;;;;;;;;;5032854;28;20370;-86
2023/05/12 10:13:14;;;;;;;;;;;;;;;;;;5033235;28;19932;-85
2023/05/12 10:15:40;;;;;;;;;;;;;;;;;;5034290;28;19917;-86
2023/05/12 10:18:05;;;;;;;;;;;;;;;;;;5033468;28;20382;-86
2023/05/12 10:20:55;;;;;;;;;;;;;;;;;;5032323;28;19920;-86
2023/05/12 10:23:21;;;;;;;;;;;;;;;;;;5033543;28;19917;-87
2023/05/12 10:25:46;;;;;;;;;;;;;;;;;;5034612;28;19909;-87
2023/05/12 10:28:12;;;;;;;;;;;;;;;;;;5033632;28;19913;-85
2023/05/12 10:30:37;;;;;;;;;;;;;;;;;;5038372;28;20353;-86
2023/05/12 10:33:02;;;;;;;;;;;;;;;;;;5038551;28;20319;-87
2023/05/12 10:35:28;;;;;;;;;;;;;;;;;;5034148;28;19916;-86
2023/05/12 10:37:53;;;;;;;;;;;;;;;;;;5037446;28;19913;-86
2023/05/12 10:40:19;;;;;;;;;;;;;;;;;;5036846;28;19909;-87
2023/05/12 10:42:44;;;;;;;;;;;;;;;;;;5037264;28;19912;-85
2023/05/12 10:45:09;;;;;;;;;;;;;;;;;;5053442;28;19920;-86
2023/05/12 10:47:35;;;;;;;;;;;;;;;;;;5037687;28;19919;-87
2023/05/12 10:50:00;;;;;;;;;;;;;;;;;;5036839;28;19913;-87
2023/05/12 10:52:25;;;;;;;;;;;;;;;;;;5038085;28;19913;-87
2023/05/12 10:54:51;;;;;;;;;;;;;;;;;;5037108;28;19932;-87
2023/05/12 10:57:16;;;;;;;;;;;;;;;;;;5048035;28;19920;-86
2023/05/12 10:59:42;;;;;;;;;;;;;;;;;;5042400;28;20720;-87
2023/05/12 11:02:07;;;;;;;;;;;;;;;;;;5037090;28;19912;-86
2023/05/12 11:04:33;;;;;;;;;;;;;;;;;;5069981;28;19913;-86
2023/05/12 11:06:59;;;;;;;;;;;;;;;;;;5037453;28;19955;-84
2023/05/12 11:09:24;;;;;;;;;;;;;;;;;;5036500;28;19959;-86
2023/05/12 11:11:49;;;;;;;;;;;;;;;;;;5036683;28;20394;-86
2023/05/12 11:14:16;;;;;;;;;;;;;;;;;;5035176;28;20392;-86
2023/05/12 11:16:42;;;;;;;;;;;;;;;;;;5035567;28;19966;-86
2023/05/12 11:19:07;;;;;;;;;;;;;;;;;;5036363;28;19909;-86
2023/05/12 11:21:32;;;;;;;;;;;;;;;;;;5037681;28;19913;-85
2023/05/12 11:23:58;;;;;;;;;;;;;;;;;;5053462;28;20041;-86
2023/05/12 11:26:23;;;;;;;;;;;;;;;;;;5036502;28;19921;-85
2023/05/12 11:28:49;;;;;;;;;;;;;;;;;;5036999;28;20014;-87
2023/05/12 11:31:14;;;;;;;;;;;;;;;;;;5039710;28;19913;-87
2023/05/12 11:33:40;;;;;;;;;;;;;;;;;;5038880;28;19905;-86
2023/05/12 11:36:05;;;;;;;;;;;;;;;;;;5038459;28;20414;-85
2023/05/12 11:38:30;;;;;;;;;;;;;;;;;;5036005;28;19909;-86
2023/05/12 11:40:56;;;;;;;;;;;;;;;;;;5039065;28;19913;-87
2023/05/12 11:43:21;;;;;;;;;;;;;;;;;;5036455;28;19917;-85
2023/05/12 11:45:46;;;;;;;;;;;;;;;;;;5038370;28;19967;-85
2023/05/12 11:48:12;;;;;;;;;;;;;;;;;;5036730;28;19889;-86
2023/05/12 11:50:38;;;;;;;;;;;;;;;;;;5037491;28;20299;-87
2023/05/12 11:53:03;;;;;;;;;;;;;;;;;;5036597;28;19913;-86
2023/05/12 11:55:29;;;;;;;;;;;;;;;;;;5036381;28;19912;-86
2023/05/12 11:57:55;;;;;;;;;;;;;;;;;;5036615;28;20022;-87
2023/05/12 12:00:20;;;;;;;;;;;;;;;;;;5041626;28;19917;-87
2023/05/12 12:02:46;;;;;;;;;;;;;;;;;;5043965;28;19920;-87
2023/05/12 12:05:11;;;;;;;;;;;;;;;;;;5037686;28;20375;-85
2023/05/12 12:07:36;;;;;;;;;;;;;;;;;;5036251;28;19909;-86
2023/05/12 12:10:02;;;;;;;;;;;;;;;;;;5044310;28;19912;-85
2023/05/12 12:12:27;;;;;;;;;;;;;;;;;;5040868;28;19915;-87
2023/05/12 12:14:55;;;;;;;;;;;;;;;;;;5037874;28;19975;-87
2023/05/12 12:17:27;;;;;;;;;;;;;;;;;;5039650;28;20351;-87
2023/05/12 12:19:52;;;;;;;;;;;;;;;;;;5039888;28;20015;-87
2023/05/12 12:22:17;;;;;;;;;;;;;;;;;;5041572;28;20659;-87
2023/05/12 12:24:43;;;;;;;;;;;;;;;;;;5038727;28;19923;-86
2023/05/12 12:27:08;;;;;;;;;;;;;;;;;;5044546;28;19909;-87
2023/05/12 12:29:33;;;;;;;;;;;;;;;;;;5045502;28;19920;-86
2023/05/12 12:31:59;;;;;;;;;;;;;;;;;;5041642;28;19909;-86
2023/05/12 12:34:24;;;;;;;;;;;;;;;;;;5049440;28;19921;-85
2023/05/12 12:36:49;;;;;;;;;;;;;;;;;;5040547;28;19909;-84
2023/05/12 12:39:15;;;;;;;;;;;;;;;;;;5044487;28;19913;-86
2023/05/12 12:41:40;;;;;;;;;;;;;;;;;;5049052;28;19951;-86
2023/05/12 12:44:05;;;;;;;;;;;;;;;;;;5048587;28;19927;-85
2023/05/12 12:46:31;;;;;;;;;;;;;;;;;;5076473;28;19999;-85
2023/05/12 12:48:57;;;;;;;;;;;;;;;;;;5043929;28;19995;-85
2023/05/12 12:51:22;;;;;;;;;;;;;;;;;;5034893;28;19909;-87
2023/05/12 12:53:48;;;;;;;;;;;;;;;;;;5064465;28;19919;-86
2023/05/12 12:56:14;;;;;;;;;;;;;;;;;;5035706;28;19909;-85
2023/05/12 12:58:40;;;;;;;;;;;;;;;;;;5036029;28;19913;-86
2023/05/12 13:01:05;;;;;;;;;;;;;;;;;;5035015;28;19932;-86
2023/05/12 13:03:30;;;;;;;;;;;;;;;;;;5035212;28;19921;-86
2023/05/12 13:05:56;;;;;;;;;;;;;;;;;;5035203;28;19909;-86
2023/05/12 13:08:23;;;;;;;;;;;;;;;;;;5033866;28;19913;-86
2023/05/12 13:10:48;;;;;;;;;;;;;;;;;;5032832;28;19959;-86
2023/05/12 13:13:13;;;;;;;;;;;;;;;;;;5035803;28;19913;-86
2023/05/12 13:15:39;;;;;;;;;;;;;;;;;;5033696;28;19942;-86
2023/05/12 13:18:04;;;;;;;;;;;;;;;;;;5036175;28;19913;-84
2023/05/12 13:20:29;;;;;;;;;;;;;;;;;;5045661;28;19909;-85
2023/05/12 13:22:55;;;;;;;;;;;;;;;;;;5033983;28;19913;-84
2023/05/12 13:25:20;;;;;;;;;;;;;;;;;;5036921;28;20011;-85
2023/05/12 13:27:45;;;;;;;;;;;;;;;;;;5035946;28;19952;-85
2023/05/12 13:30:11;;;;;;;;;;;;;;;;;;5038046;28;19962;-85
2023/05/12 13:32:36;;;;;;;;;;;;;;;;;;5033110;28;19913;-85
2023/05/12 13:35:02;;;;;;;;;;;;;;;;;;5050828;28;20149;-85
2023/05/12 13:37:27;;;;;;;;;;;;;;;;;;5040859;28;20291;-85
2023/05/12 13:39:52;;;;;;;;;;;;;;;;;;5038402;28;20291;-85
2023/05/12 13:42:18;;;;;;;;;;;;;;;;;;5037122;28;20474;-85
2023/05/12 13:44:43;;;;;;;;;;;;;;;;;;5040193;28;19962;-85
2023/05/12 13:47:09;;;;;;;;;;;;;;;;;;5036780;28;19981;-85
2023/05/12 13:49:34;;;;;;;;;;;;;;;;;;5040136;28;19908;-85
2023/05/12 13:51:59;;;;;;;;;;;;;;;;;;5019558;28;19963;-86
2023/05/12 13:54:25;;;;;;;;;;;;;;;;;;5041132;28;19915;-86
2023/05/12 13:56:50;;;;;;;;;;;;;;;;;;5045790;28;20007;-86
2023/05/12 13:59:15;;;;;;;;;;;;;;;;;;5037782;28;19908;-86
2023/05/12 14:01:41;;;;;;;;;;;;;;;;;;5036004;28;19913;-86
2023/05/12 14:04:06;;;;;;;;;;;;;;;;;;5033220;28;19966;-86
2023/05/12 14:06:31;;;;;;;;;;;;;;;;;;5036345;28;20011;-86
2023/05/12 14:08:57;;;;;;;;;;;;;;;;;;5037236;28;19956;-86
2023/05/12 14:11:22;;;;;;;;;;;;;;;;;;5040667;28;19912;-86
2023/05/12 14:13:47;;;;;;;;;;;;;;;;;;5042952;28;19916;-86
2023/05/12 14:16:13;;;;;;;;;;;;;;;;;;5035947;28;19923;-86
2023/05/12 14:18:38;;;;;;;;;;;;;;;;;;5041990;28;19944;-86
2023/05/12 14:21:05;;;;;;;;;;;;;;;;;;5035207;28;20298;-86
2023/05/12 14:23:30;;;;;;;;;;;;;;;;;;5040526;28;19966;-85
2023/05/12 14:25:55;;;;;;;;;;;;;;;;;;5039559;28;19913;-86
2023/05/12 14:28:22;;;;;;;;;;;;;;;;;;5041793;28;19958;-86
2023/05/12 14:30:47;;;;;;;;;;;;;;;;;;5038223;28;19913;-86
2023/05/12 14:33:13;;;;;;;;;;;;;;;;;;5024386;28;20287;-86
2023/05/12 14:35:38;;;;;;;;;;;;;;;;;;5034643;28;20007;-86
2023/05/12 14:38:03;;;;;;;;;;;;;;;;;;5050183;28;19909;-86
2023/05/12 14:40:29;;;;;;;;;;;;;;;;;;5036412;28;20004;-86
2023/05/12 14:42:54;;;;;;;;;;;;;;;;;;5040012;28;19909;-87
2023/05/12 14:45:20;;;;;;;;;;;;;;;;;;5040886;28;20139;-87
2023/05/12 14:47:45;;;;;;;;;;;;;;;;;;5040638;28;19916;-87
2023/05/12 14:50:11;;;;;;;;;;;;;;;;;;5053274;28;19952;-86
2023/05/12 14:52:39;;;;;;;;;;;;;;;;;;5043831;28;19913;-86
2023/05/12 14:55:05;;;;;;;;;;;;;;;;;;5039829;28;19921;-87
2023/05/12 14:57:32;;;;;;;;;;;;;;;;;;5029174;28;19913;-87
2023/05/12 14:59:58;;;;;;;;;;;;;;;;;;5040401;28;19987;-87
2023/05/12 15:02:23;;;;;;;;;;;;;;;;;;5025741;28;19931;-86
2023/05/12 15:05:14;;;;;;;;;;;;;;;;;;5035840;28;20387;-86
2023/05/12 15:07:39;;;;;;;;;;;;;;;;;;5040424;28;19920;-86
2023/05/12 15:10:04;;;;;;;;;;;;;;;;;;5034918;28;20292;-87
2023/05/12 15:12:30;;;;;;;;;;;;;;;;;;5038409;28;19917;-87
2023/05/12 15:14:55;;;;;;;;;;;;;;;;;;5018312;28;19909;-86
2023/05/12 15:17:21;;;;;;;;;;;;;;;;;;5020377;28;19920;-86
2023/05/12 15:19:46;;;;;;;;;;;;;;;;;;5015091;28;19909;-87
2023/05/12 15:22:12;;;;;;;;;;;;;;;;;;5034050;28;19913;-84
2023/05/12 15:24:37;;;;;;;;;;;;;;;;;;5019496;28;19913;-84
2023/05/12 15:27:02;;;;;;;;;;;;;;;;;;5058423;28;19913;-87
2023/05/12 15:29:28;;;;;;;;;;;;;;;;;;5039360;28;19913;-88
2023/05/12 15:31:56;;;;;;;;;;;;;;;;;;5038156;28;19919;-87
2023/05/12 15:34:22;;;;;;;;;;;;;;;;;;5044094;28;19971;-84
2023/05/12 15:36:47;;;;;;;;;;;;;;;;;;5047075;28;20384;-88
2023/05/12 15:39:13;;;;;;;;;;;;;;;;;;5037609;28;20036;-85
2023/05/12 15:41:39;;;;;;;;;;;;;;;;;;5019554;28;19936;-86
2023/05/12 15:44:05;;;;;;;;;;;;;;;;;;5061397;28;19917;-85
2023/05/12 15:46:30;;;;;;;;;;;;;;;;;;5051273;28;20003;-85
2023/05/12 15:48:57;;;;;;;;;;;;;;;;;;5051637;28;19909;-86
2023/05/12 15:51:23;;;;;;;;;;;;;;;;;;5040438;28;19912;-86
2023/05/12 15:53:48;;;;;;;;;;;;;;;;;;5053470;28;20268;-86
2023/05/12 15:56:13;;;;;;;;;;;;;;;;;;5064611;28;19912;-85
2023/05/12 15:58:39;;;;;;;;;;;;;;;;;;5043831;28;19913;-86
2023/05/12 16:01:04;;;;;;;;;;;;;;;;;;5037260;28;19962;-85
2023/05/12 16:03:30;;;;;;;;;;;;;;;;;;5047195;28;19912;-85
2023/05/12 16:05:55;;;;;;;;;;;;;;;;;;5036616;28;20372;-86
2023/05/12 16:08:22;;;;;;;;;;;;;;;;;;5036439;28;19909;-86
2023/05/12 16:10:48;;;;;;;;;;;;;;;;;;5039381;28;19912;-86
2023/05/12 16:13:13;;;;;;;;;;;;;;;;;;5015709;28;20406;-86
2023/05/12 16:15:39;;;;;;;;;;;;;;;;;;5047257;28;20370;-86
2023/05/12 16:18:04;;;;;;;;;;;;;;;;;;5037001;28;19909;-86
2023/05/12 16:20:30;;;;;;;;;;;;;;;;;;5084901;28;20389;-86
2023/05/12 16:22:55;;;;;;;;;;;;;;;;;;5042780;28;19909;-85
2023/05/12 16:25:21;;;;;;;;;;;;;;;;;;5045325;28;20288;-86
2023/05/12 16:27:46;;;;;;;;;;;;;;;;;;5029045;28;19909;-86
2023/05/12 16:30:12;;;;;;;;;;;;;;;;;;5038242;28;20437;-85
2023/05/12 16:32:37;;;;;;;;;;;;;;;;;;5036828;28;19960;-86
2023/05/12 16:35:02;;;;;;;;;;;;;;;;;;5037333;28;19928;-85